This is the latest recevied weather packets stored in our database for station/object W7JFO-3. If no packets are shown the sender has not sent any weather packets the latest 10 day(s).
| Time | Temp. | Humidity | Pressure | Rain* | Wind** | Luminosity | Snow |
|---|---|---|---|---|---|---|---|
| 1777330022 | 5.56° C | 62% | 1013.5 hPa | 0 mm | - | 819 W/m² | - |
| 1777329122 | 5° C | 69% | 1013.4 hPa | 0 mm | - | 220 W/m² | - |
| 1777328222 | 5.56° C | 59% | 1013.8 hPa | 0 mm | - | 74 W/m² | - |
| 1777327322 | 6.67° C | 56% | 1013.4 hPa | 0 mm | - | 193 W/m² | - |
| 1777326422 | 6.67° C | 62% | 1013.4 hPa | 0 mm | - | 844 W/m² | - |
| 1777325522 | 6.11° C | 58% | 1013.4 hPa | 0 mm | - | 471 W/m² | - |
| 1777324622 | 6.11° C | 58% | 1013.7 hPa | 0 mm | - | 287 W/m² | - |
| 1777323722 | 7.78° C | 47% | 1013.6 hPa | 0 mm | - | 160 W/m² | - |
| 1777322822 | 6.67° C | 54% | 1013.7 hPa | 0 mm | - | 575 W/m² | - |
| 1777321922 | 6.67° C | 52% | 1013.7 hPa | 0 mm | - | 251 W/m² | - |
| 1777321022 | 5.56° C | 55% | 1013.5 hPa | 0 mm | - | 318 W/m² | - |
| 1777320122 | 6.11° C | 59% | 1013.9 hPa | 0 mm | - | 262 W/m² | - |
| 1777319222 | 5.56° C | 58% | 1013.8 hPa | 0 mm | - | 255 W/m² | - |
| 1777318322 | 5.56° C | 57% | 1013.9 hPa | 0 mm | - | 237 W/m² | - |
| 1777317422 | 6.11° C | 57% | 1014.1 hPa | 0 mm | - | 290 W/m² | - |
| 1777316522 | 5.56° C | 58% | 1014.4 hPa | 0 mm | - | 422 W/m² | - |
| 1777315622 | 6.11° C | 56% | 1014.7 hPa | 0 mm | - | 807 W/m² | - |
| 1777314723 | 6.11° C | 57% | 1014.8 hPa | 0 mm | - | 606 W/m² | - |
| 1777313823 | 5.56° C | 56% | 1014.7 hPa | 0 mm | - | 898 W/m² | - |
| 1777312922 | 5° C | 58% | 1014.9 hPa | 0 mm | - | 888 W/m² | - |
| 1777312023 | 5° C | 62% | 1015.2 hPa | 0 mm | - | 896 W/m² | - |
| 1777311123 | 2.78° C | 63% | 1015.3 hPa | 0 mm | - | 339 W/m² | - |
| 1777310223 | 3.33° C | 62% | 1015.4 hPa | 0 mm | - | 376 W/m² | - |
| 1777309323 | 2.22° C | 63% | 1015.4 hPa | 0 mm | - | 306 W/m² | - |
| 1777308423 | 1.67° C | 65% | 1016 hPa | 0 mm | - | 578 W/m² | - |
* Rain latest hour (hover to see other rain measurements)
** Current wind speed in m/s (hover to see current wind gust speed)